sensor_id;sensor_type;location;lat;lon;timestamp;temperature;humidity
21121;DHT22;12519;43.318;21.898;2022-12-18T00:00:47;7.0;100.0
21121;DHT22;12519;43.318;21.898;2022-12-18T00:05:23;7.0;100.0
21121;DHT22;12519;43.318;21.898;2022-12-18T00:09:59;7.0;100.0
21121;DHT22;12519;43.318;21.898;2022-12-18T00:14:35;7.0;100.0
21121;DHT22;12519;43.318;21.898;2022-12-18T00:19:13;7.0;100.0
21121;DHT22;12519;43.318;21.898;2022-12-18T00:23:51;6.9;100.0
21121;DHT22;12519;43.318;21.898;2022-12-18T00:28:28;6.9;100.0
21121;DHT22;12519;43.318;21.898;2022-12-18T00:33:04;7.0;100.0
21121;DHT22;12519;43.318;21.898;2022-12-18T00:37:41;7.0;100.0
21121;DHT22;12519;43.318;21.898;2022-12-18T00:42:17;7.0;100.0
21121;DHT22;12519;43.318;21.898;2022-12-18T00:46:53;7.0;100.0
21121;DHT22;12519;43.318;21.898;2022-12-18T00:51:30;6.8;100.0
21121;DHT22;12519;43.318;21.898;2022-12-18T00:56:07;6.8;100.0
21121;DHT22;12519;43.318;21.898;2022-12-18T01:00:43;6.8;100.0
21121;DHT22;12519;43.318;21.898;2022-12-18T01:05:20;6.5;100.0
21121;DHT22;12519;43.318;21.898;2022-12-18T01:09:57;6.5;100.0
21121;DHT22;12519;43.318;21.898;2022-12-18T01:14:33;7.0;100.0
21121;DHT22;12519;43.318;21.898;2022-12-18T01:19:09;7.0;100.0
21121;DHT22;12519;43.318;21.898;2022-12-18T01:23:46;7.5;100.0
21121;DHT22;12519;43.318;21.898;2022-12-18T01:28:28;7.5;100.0
21121;DHT22;12519;43.318;21.898;2022-12-18T01:33:05;7.4;100.0
21121;DHT22;12519;43.318;21.898;2022-12-18T01:37:41;7.4;100.0
21121;DHT22;12519;43.318;21.898;2022-12-18T01:42:18;7.4;100.0
21121;DHT22;12519;43.318;21.898;2022-12-18T01:46:54;7.4;100.0
21121;DHT22;12519;43.318;21.898;2022-12-18T01:51:31;7.2;100.0
21121;DHT22;12519;43.318;21.898;2022-12-18T01:56:12;7.2;100.0
21121;DHT22;12519;43.318;21.898;2022-12-18T02:00:49;7.2;100.0
21121;DHT22;12519;43.318;21.898;2022-12-18T02:05:45;7.0;100.0
21121;DHT22;12519;43.318;21.898;2022-12-18T02:10:37;7.0;100.0
21121;DHT22;12519;43.318;21.898;2022-12-18T02:15:40;7.0;100.0
21121;DHT22;12519;43.318;21.898;2022-12-18T02:20:45;7.0;100.0
21121;DHT22;12519;43.318;21.898;2022-12-18T02:26:06;7.0;100.0
21121;DHT22;12519;43.318;21.898;2022-12-18T02:30:59;7.0;100.0
21121;DHT22;12519;43.318;21.898;2022-12-18T02:35:45;7.0;100.0
21121;DHT22;12519;43.318;21.898;2022-12-18T02:40:28;7.0;100.0
21121;DHT22;12519;43.318;21.898;2022-12-18T02:45:07;7.0;100.0
21121;DHT22;12519;43.318;21.898;2022-12-18T02:50:08;7.0;100.0
21121;DHT22;12519;43.318;21.898;2022-12-18T02:55:10;7.0;100.0
21121;DHT22;12519;43.318;21.898;2022-12-18T03:00:05;7.0;100.0
21121;DHT22;12519;43.318;21.898;2022-12-18T03:04:55;7.0;100.0
21121;DHT22;12519;43.318;21.898;2022-12-18T03:09:46;7.0;100.0
21121;DHT22;12519;43.318;21.898;2022-12-18T03:14:30;7.0;100.0
21121;DHT22;12519;43.318;21.898;2022-12-18T03:19:15;7.0;100.0
21121;DHT22;12519;43.318;21.898;2022-12-18T03:23:58;6.9;100.0
21121;DHT22;12519;43.318;21.898;2022-12-18T03:28:46;6.9;100.0
21121;DHT22;12519;43.318;21.898;2022-12-18T03:33:38;6.8;100.0
21121;DHT22;12519;43.318;21.898;2022-12-18T03:38:22;6.8;100.0
21121;DHT22;12519;43.318;21.898;2022-12-18T03:43:10;6.6;100.0
21121;DHT22;12519;43.318;21.898;2022-12-18T03:48:18;6.6;100.0
21121;DHT22;12519;43.318;21.898;2022-12-18T03:53:36;6.6;100.0
21121;DHT22;12519;43.318;21.898;2022-12-18T03:58:33;6.6;100.0
21121;DHT22;12519;43.318;21.898;2022-12-18T04:03:20;6.7;100.0
21121;DHT22;12519;43.318;21.898;2022-12-18T04:08:01;6.7;100.0
21121;DHT22;12519;43.318;21.898;2022-12-18T04:12:38;7.2;99.0
21121;DHT22;12519;43.318;21.898;2022-12-18T04:17:15;7.2;99.0
21121;DHT22;12519;43.318;21.898;2022-12-18T04:21:51;7.7;98.0
21121;DHT22;12519;43.318;21.898;2022-12-18T04:26:27;7.7;98.0
21121;DHT22;12519;43.318;21.898;2022-12-18T04:31:05;7.7;98.0
21121;DHT22;12519;43.318;21.898;2022-12-18T04:35:41;7.0;99.0
21121;DHT22;12519;43.318;21.898;2022-12-18T04:40:18;7.0;99.0
21121;DHT22;12519;43.318;21.898;2022-12-18T04:44:54;6.2;100.0
21121;DHT22;12519;43.318;21.898;2022-12-18T04:49:30;6.2;100.0
21121;DHT22;12519;43.318;21.898;2022-12-18T04:54:06;6.1;100.0
21121;DHT22;12519;43.318;21.898;2022-12-18T04:58:44;6.1;100.0
21121;DHT22;12519;43.318;21.898;2022-12-18T05:03:21;6.0;100.0
21121;DHT22;12519;43.318;21.898;2022-12-18T05:07:57;6.0;100.0
21121;DHT22;12519;43.318;21.898;2022-12-18T05:12:33;6.0;100.0
21121;DHT22;12519;43.318;21.898;2022-12-18T05:17:10;6.0;100.0
21121;DHT22;12519;43.318;21.898;2022-12-18T05:21:46;6.1;100.0
21121;DHT22;12519;43.318;21.898;2022-12-18T05:26:22;6.1;100.0
21121;DHT22;12519;43.318;21.898;2022-12-18T05:31:03;6.1;100.0
21121;DHT22;12519;43.318;21.898;2022-12-18T05:35:39;6.0;100.0
21121;DHT22;12519;43.318;21.898;2022-12-18T05:40:16;6.0;100.0
21121;DHT22;12519;43.318;21.898;2022-12-18T05:44:52;5.9;100.0
21121;DHT22;12519;43.318;21.898;2022-12-18T05:49:28;5.9;100.0
21121;DHT22;12519;43.318;21.898;2022-12-18T05:54:04;5.8;100.0
21121;DHT22;12519;43.318;21.898;2022-12-18T05:58:41;5.8;100.0
21121;DHT22;12519;43.318;21.898;2022-12-18T06:03:18;5.7;100.0
21121;DHT22;12519;43.318;21.898;2022-12-18T06:07:54;5.7;100.0
21121;DHT22;12519;43.318;21.898;2022-12-18T06:12:31;5.7;100.0
21121;DHT22;12519;43.318;21.898;2022-12-18T06:17:07;5.7;100.0
21121;DHT22;12519;43.318;21.898;2022-12-18T06:21:44;5.7;100.0
21121;DHT22;12519;43.318;21.898;2022-12-18T06:26:21;5.7;100.0
21121;DHT22;12519;43.318;21.898;2022-12-18T06:30:59;5.7;100.0
21121;DHT22;12519;43.318;21.898;2022-12-18T06:35:36;6.0;100.0
21121;DHT22;12519;43.318;21.898;2022-12-18T06:40:12;6.0;100.0
21121;DHT22;12519;43.318;21.898;2022-12-18T06:44:49;6.3;100.0
21121;DHT22;12519;43.318;21.898;2022-12-18T06:49:25;6.3;100.0
21121;DHT22;12519;43.318;21.898;2022-12-18T06:54:01;6.2;99.0
21121;DHT22;12519;43.318;21.898;2022-12-18T06:58:39;6.2;99.0
21121;DHT22;12519;43.318;21.898;2022-12-18T07:03:15;6.2;99.0
21121;DHT22;12519;43.318;21.898;2022-12-18T07:07:52;6.2;99.0
21121;DHT22;12519;43.318;21.898;2022-12-18T07:12:28;6.2;98.0
21121;DHT22;12519;43.318;21.898;2022-12-18T07:17:04;6.2;98.0
21121;DHT22;12519;43.318;21.898;2022-12-18T07:21:40;6.2;98.0
21121;DHT22;12519;43.318;21.898;2022-12-18T07:26:20;6.2;98.0
21121;DHT22;12519;43.318;21.898;2022-12-18T07:30:58;6.2;98.0
21121;DHT22;12519;43.318;21.898;2022-12-18T07:35:39;6.1;98.0
21121;DHT22;12519;43.318;21.898;2022-12-18T07:40:15;6.1;98.0
21121;DHT22;12519;43.318;21.898;2022-12-18T07:44:52;6.0;98.0
21121;DHT22;12519;43.318;21.898;2022-12-18T07:49:28;6.0;98.0
21121;DHT22;12519;43.318;21.898;2022-12-18T07:54:05;5.8;99.0
21121;DHT22;12519;43.318;21.898;2022-12-18T07:58:41;5.8;99.0
21121;DHT22;12519;43.318;21.898;2022-12-18T08:03:17;5.5;100.0
21121;DHT22;12519;43.318;21.898;2022-12-18T08:07:54;5.5;100.0
21121;DHT22;12519;43.318;21.898;2022-12-18T08:12:30;5.8;100.0
21121;DHT22;12519;43.318;21.898;2022-12-18T08:17:06;5.8;100.0
21121;DHT22;12519;43.318;21.898;2022-12-18T08:21:42;5.8;100.0
21121;DHT22;12519;43.318;21.898;2022-12-18T08:26:20;6.0;100.0
21121;DHT22;12519;43.318;21.898;2022-12-18T08:30:56;6.0;100.0
21121;DHT22;12519;43.318;21.898;2022-12-18T08:35:36;6.4;99.0
21121;DHT22;12519;43.318;21.898;2022-12-18T08:40:12;6.4;99.0
21121;DHT22;12519;43.318;21.898;2022-12-18T08:44:48;6.9;99.0
21121;DHT22;12519;43.318;21.898;2022-12-18T08:49:25;6.9;99.0
21121;DHT22;12519;43.318;21.898;2022-12-18T08:54:03;6.5;99.0
21121;DHT22;12519;43.318;21.898;2022-12-18T08:58:42;6.5;99.0
21121;DHT22;12519;43.318;21.898;2022-12-18T09:03:20;6.1;99.0
21121;DHT22;12519;43.318;21.898;2022-12-18T09:07:57;6.1;99.0
21121;DHT22;12519;43.318;21.898;2022-12-18T09:12:33;6.0;99.0
21121;DHT22;12519;43.318;21.898;2022-12-18T09:17:09;6.0;99.0
21121;DHT22;12519;43.318;21.898;2022-12-18T09:21:46;6.0;99.0
21121;DHT22;12519;43.318;21.898;2022-12-18T09:26:26;5.9;98.0
21121;DHT22;12519;43.318;21.898;2022-12-18T09:31:08;5.9;98.0
21121;DHT22;12519;43.318;21.898;2022-12-18T09:35:47;6.2;98.0
21121;DHT22;12519;43.318;21.898;2022-12-18T09:40:36;6.2;98.0
21121;DHT22;12519;43.318;21.898;2022-12-18T09:45:19;6.6;98.0
21121;DHT22;12519;43.318;21.898;2022-12-18T09:50:05;6.6;98.0
21121;DHT22;12519;43.318;21.898;2022-12-18T09:54:59;6.2;98.0
21121;DHT22;12519;43.318;21.898;2022-12-18T09:59:39;6.2;98.0
21121;DHT22;12519;43.318;21.898;2022-12-18T10:04:16;5.8;98.0
21121;DHT22;12519;43.318;21.898;2022-12-18T10:09:06;5.8;98.0
21121;DHT22;12519;43.318;21.898;2022-12-18T10:14:09;6.1;98.0
21121;DHT22;12519;43.318;21.898;2022-12-18T10:19:29;6.1;98.0
21121;DHT22;12519;43.318;21.898;2022-12-18T10:24:32;6.4;97.0
21121;DHT22;12519;43.318;21.898;2022-12-18T10:29:19;6.4;97.0
21121;DHT22;12519;43.318;21.898;2022-12-18T10:33:56;6.7;97.0
21121;DHT22;12519;43.318;21.898;2022-12-18T10:38:33;6.7;97.0
21121;DHT22;12519;43.318;21.898;2022-12-18T10:43:14;7.0;97.0
21121;DHT22;12519;43.318;21.898;2022-12-18T10:47:51;7.0;97.0
21121;DHT22;12519;43.318;21.898;2022-12-18T10:52:28;6.6;97.0
21121;DHT22;12519;43.318;21.898;2022-12-18T10:57:39;6.6;97.0
21121;DHT22;12519;43.318;21.898;2022-12-18T11:02:35;6.2;97.0
21121;DHT22;12519;43.318;21.898;2022-12-18T11:07:12;6.2;97.0
21121;DHT22;12519;43.318;21.898;2022-12-18T11:11:49;6.2;97.0
21121;DHT22;12519;43.318;21.898;2022-12-18T11:16:28;6.2;98.0
21121;DHT22;12519;43.318;21.898;2022-12-18T11:21:11;6.2;98.0
21121;DHT22;12519;43.318;21.898;2022-12-18T11:25:59;6.3;98.0
21121;DHT22;12519;43.318;21.898;2022-12-18T11:30:38;6.3;98.0
21121;DHT22;12519;43.318;21.898;2022-12-18T11:35:30;6.2;98.0
21121;DHT22;12519;43.318;21.898;2022-12-18T11:40:30;6.2;98.0
21121;DHT22;12519;43.318;21.898;2022-12-18T11:45:29;6.1;98.0
21121;DHT22;12519;43.318;21.898;2022-12-18T11:50:24;6.1;98.0
21121;DHT22;12519;43.318;21.898;2022-12-18T11:55:15;6.1;98.0
21121;DHT22;12519;43.318;21.898;2022-12-18T12:00:25;6.1;98.0
21121;DHT22;12519;43.318;21.898;2022-12-18T12:05:30;6.1;98.0
21121;DHT22;12519;43.318;21.898;2022-12-18T12:10:51;6.1;98.0
21121;DHT22;12519;43.318;21.898;2022-12-18T12:16:06;6.0;98.0
21121;DHT22;12519;43.318;21.898;2022-12-18T12:21:11;6.0;98.0
21121;DHT22;12519;43.318;21.898;2022-12-18T12:26:08;5.9;98.0
21121;DHT22;12519;43.318;21.898;2022-12-18T12:31:05;5.9;98.0
21121;DHT22;12519;43.318;21.898;2022-12-18T12:36:18;5.8;99.0
21121;DHT22;12519;43.318;21.898;2022-12-18T12:41:14;5.8;99.0
21121;DHT22;12519;43.318;21.898;2022-12-18T12:46:05;5.8;99.0
21121;DHT22;12519;43.318;21.898;2022-12-18T12:50:47;5.8;99.0
21121;DHT22;12519;43.318;21.898;2022-12-18T12:55:29;5.8;99.0
21121;DHT22;12519;43.318;21.898;2022-12-18T13:00:16;5.8;99.0
21121;DHT22;12519;43.318;21.898;2022-12-18T13:05:10;5.9;98.0
21121;DHT22;12519;43.318;21.898;2022-12-18T13:10:31;5.9;98.0
21121;DHT22;12519;43.318;21.898;2022-12-18T13:15:24;5.8;99.0
21121;DHT22;12519;43.318;21.898;2022-12-18T13:20:20;5.8;99.0
21121;DHT22;12519;43.318;21.898;2022-12-18T13:24:56;5.7;99.0
21121;DHT22;12519;43.318;21.898;2022-12-18T13:29:47;5.7;99.0
21121;DHT22;12519;43.318;21.898;2022-12-18T13:34:28;5.8;98.0
21121;DHT22;12519;43.318;21.898;2022-12-18T13:39:32;5.8;98.0
21121;DHT22;12519;43.318;21.898;2022-12-18T13:44:31;5.8;98.0
21121;DHT22;12519;43.318;21.898;2022-12-18T13:49:30;5.8;98.0
21121;DHT22;12519;43.318;21.898;2022-12-18T13:54:29;5.9;98.0
21121;DHT22;12519;43.318;21.898;2022-12-18T13:59:18;5.9;98.0
21121;DHT22;12519;43.318;21.898;2022-12-18T14:04:11;6.0;97.0
21121;DHT22;12519;43.318;21.898;2022-12-18T14:08:56;6.0;97.0
21121;DHT22;12519;43.318;21.898;2022-12-18T14:13:41;5.9;98.0
21121;DHT22;12519;43.318;21.898;2022-12-18T14:18:25;5.9;98.0
21121;DHT22;12519;43.318;21.898;2022-12-18T14:23:30;5.8;98.0
21121;DHT22;12519;43.318;21.898;2022-12-18T14:28:14;5.8;98.0
21121;DHT22;12519;43.318;21.898;2022-12-18T14:33:05;5.8;98.0
21121;DHT22;12519;43.318;21.898;2022-12-18T14:37:49;5.8;98.0
21121;DHT22;12519;43.318;21.898;2022-12-18T14:42:28;5.8;98.0
21121;DHT22;12519;43.318;21.898;2022-12-18T14:47:04;5.7;98.0
21121;DHT22;12519;43.318;21.898;2022-12-18T14:51:51;5.7;98.0
21121;DHT22;12519;43.318;21.898;2022-12-18T14:56:35;5.8;97.0
21121;DHT22;12519;43.318;21.898;2022-12-18T15:01:27;5.8;97.0
21121;DHT22;12519;43.318;21.898;2022-12-18T15:06:32;6.0;97.0
21121;DHT22;12519;43.318;21.898;2022-12-18T15:11:32;6.0;97.0
21121;DHT22;12519;43.318;21.898;2022-12-18T15:16:13;5.8;97.0
21121;DHT22;12519;43.318;21.898;2022-12-18T15:20:53;5.8;97.0
21121;DHT22;12519;43.318;21.898;2022-12-18T15:25:36;5.6;96.0
21121;DHT22;12519;43.318;21.898;2022-12-18T15:30:23;5.6;96.0
21121;DHT22;12519;43.318;21.898;2022-12-18T15:35:15;5.6;96.0
21121;DHT22;12519;43.318;21.898;2022-12-18T15:39:55;5.6;96.0
21121;DHT22;12519;43.318;21.898;2022-12-18T15:44:32;5.5;96.0
21121;DHT22;12519;43.318;21.898;2022-12-18T15:49:08;5.5;96.0
21121;DHT22;12519;43.318;21.898;2022-12-18T15:53:48;5.4;96.0
21121;DHT22;12519;43.318;21.898;2022-12-18T15:58:25;5.4;96.0
21121;DHT22;12519;43.318;21.898;2022-12-18T16:03:02;5.2;96.0
21121;DHT22;12519;43.318;21.898;2022-12-18T16:07:38;5.2;96.0
21121;DHT22;12519;43.318;21.898;2022-12-18T16:12:20;5.2;96.0
21121;DHT22;12519;43.318;21.898;2022-12-18T16:17:03;5.0;97.0
21121;DHT22;12519;43.318;21.898;2022-12-18T16:21:39;5.0;97.0
21121;DHT22;12519;43.318;21.898;2022-12-18T16:26:15;4.7;98.0
21121;DHT22;12519;43.318;21.898;2022-12-18T16:30:51;4.7;98.0
21121;DHT22;12519;43.318;21.898;2022-12-18T16:35:27;4.6;98.0
21121;DHT22;12519;43.318;21.898;2022-12-18T16:40:06;4.6;98.0
21121;DHT22;12519;43.318;21.898;2022-12-18T16:44:49;4.6;98.0
21121;DHT22;12519;43.318;21.898;2022-12-18T16:49:25;4.6;98.0
21121;DHT22;12519;43.318;21.898;2022-12-18T16:54:01;4.9;98.0
21121;DHT22;12519;43.318;21.898;2022-12-18T16:58:38;4.9;98.0
21121;DHT22;12519;43.318;21.898;2022-12-18T17:03:14;5.2;97.0
21121;DHT22;12519;43.318;21.898;2022-12-18T17:07:50;5.2;97.0
21121;DHT22;12519;43.318;21.898;2022-12-18T17:12:27;5.2;97.0
21121;DHT22;12519;43.318;21.898;2022-12-18T17:17:03;5.1;97.0
21121;DHT22;12519;43.318;21.898;2022-12-18T17:21:41;5.1;97.0
21121;DHT22;12519;43.318;21.898;2022-12-18T17:26:17;4.9;96.0
21121;DHT22;12519;43.318;21.898;2022-12-18T17:30:55;4.9;96.0
21121;DHT22;12519;43.318;21.898;2022-12-18T17:35:31;4.6;97.0
21121;DHT22;12519;43.318;21.898;2022-12-18T17:40:10;4.6;97.0
21121;DHT22;12519;43.318;21.898;2022-12-18T17:44:46;4.4;97.0
21121;DHT22;12519;43.318;21.898;2022-12-18T17:49:23;4.4;97.0
21121;DHT22;12519;43.318;21.898;2022-12-18T17:53:59;4.3;97.0
21121;DHT22;12519;43.318;21.898;2022-12-18T17:58:36;4.3;97.0
21121;DHT22;12519;43.318;21.898;2022-12-18T18:03:13;4.2;97.0
21121;DHT22;12519;43.318;21.898;2022-12-18T18:07:50;4.2;97.0
21121;DHT22;12519;43.318;21.898;2022-12-18T18:12:26;4.2;97.0
21121;DHT22;12519;43.318;21.898;2022-12-18T18:17:02;4.0;98.0
21121;DHT22;12519;43.318;21.898;2022-12-18T18:21:43;4.0;98.0
21121;DHT22;12519;43.318;21.898;2022-12-18T18:26:21;3.9;98.0
21121;DHT22;12519;43.318;21.898;2022-12-18T18:31:02;3.9;98.0
21121;DHT22;12519;43.318;21.898;2022-12-18T18:35:41;4.0;98.0
21121;DHT22;12519;43.318;21.898;2022-12-18T18:40:18;4.0;98.0
21121;DHT22;12519;43.318;21.898;2022-12-18T18:44:54;4.2;98.0
21121;DHT22;12519;43.318;21.898;2022-12-18T18:49:30;4.2;98.0
21121;DHT22;12519;43.318;21.898;2022-12-18T18:54:07;4.2;98.0
21121;DHT22;12519;43.318;21.898;2022-12-18T18:58:43;4.2;98.0
21121;DHT22;12519;43.318;21.898;2022-12-18T19:03:19;4.3;98.0
21121;DHT22;12519;43.318;21.898;2022-12-18T19:07:55;4.3;98.0
21121;DHT22;12519;43.318;21.898;2022-12-18T19:12:33;4.3;98.0
21121;DHT22;12519;43.318;21.898;2022-12-18T19:17:09;4.2;98.0
21121;DHT22;12519;43.318;21.898;2022-12-18T19:21:46;4.2;98.0
21121;DHT22;12519;43.318;21.898;2022-12-18T19:26:24;4.0;98.0
21121;DHT22;12519;43.318;21.898;2022-12-18T19:31:06;4.0;98.0
21121;DHT22;12519;43.318;21.898;2022-12-18T19:35:45;3.8;98.0
21121;DHT22;12519;43.318;21.898;2022-12-18T19:40:22;3.8;98.0
21121;DHT22;12519;43.318;21.898;2022-12-18T19:44:58;3.7;98.0
21121;DHT22;12519;43.318;21.898;2022-12-18T19:49:34;3.7;98.0
21121;DHT22;12519;43.318;21.898;2022-12-18T19:54:10;3.7;98.0
21121;DHT22;12519;43.318;21.898;2022-12-18T19:58:47;3.7;98.0
21121;DHT22;12519;43.318;21.898;2022-12-18T20:03:23;3.7;98.0
21121;DHT22;12519;43.318;21.898;2022-12-18T20:07:59;3.7;98.0
21121;DHT22;12519;43.318;21.898;2022-12-18T20:12:36;3.7;98.0
21121;DHT22;12519;43.318;21.898;2022-12-18T20:17:12;3.7;98.0
21121;DHT22;12519;43.318;21.898;2022-12-18T20:21:48;3.7;98.0
21121;DHT22;12519;43.318;21.898;2022-12-18T20:26:25;3.7;99.0
21121;DHT22;12519;43.318;21.898;2022-12-18T20:31:04;3.7;99.0
21121;DHT22;12519;43.318;21.898;2022-12-18T20:35:41;4.0;98.0
21121;DHT22;12519;43.318;21.898;2022-12-18T20:40:18;4.0;98.0
21121;DHT22;12519;43.318;21.898;2022-12-18T20:44:54;4.2;98.0
21121;DHT22;12519;43.318;21.898;2022-12-18T20:49:30;4.2;98.0
21121;DHT22;12519;43.318;21.898;2022-12-18T20:54:06;4.5;97.0
21121;DHT22;12519;43.318;21.898;2022-12-18T20:58:43;4.5;97.0
21121;DHT22;12519;43.318;21.898;2022-12-18T21:03:19;4.5;97.0
21121;DHT22;12519;43.318;21.898;2022-12-18T21:07:56;4.8;96.0
21121;DHT22;12519;43.318;21.898;2022-12-18T21:12:32;4.8;96.0
21121;DHT22;12519;43.318;21.898;2022-12-18T21:17:08;4.6;96.0
21121;DHT22;12519;43.318;21.898;2022-12-18T21:21:45;4.6;96.0
21121;DHT22;12519;43.318;21.898;2022-12-18T21:26:24;4.5;96.0
21121;DHT22;12519;43.318;21.898;2022-12-18T21:31:02;4.5;96.0
21121;DHT22;12519;43.318;21.898;2022-12-18T21:35:38;4.5;96.0
21121;DHT22;12519;43.318;21.898;2022-12-18T21:40:14;4.5;96.0
21121;DHT22;12519;43.318;21.898;2022-12-18T21:44:50;4.5;96.0
21121;DHT22;12519;43.318;21.898;2022-12-18T21:49:26;4.5;96.0
21121;DHT22;12519;43.318;21.898;2022-12-18T21:54:03;4.6;96.0
21121;DHT22;12519;43.318;21.898;2022-12-18T21:58:39;4.6;96.0
21121;DHT22;12519;43.318;21.898;2022-12-18T22:03:15;4.6;96.0
21121;DHT22;12519;43.318;21.898;2022-12-18T22:07:52;4.8;96.0
21121;DHT22;12519;43.318;21.898;2022-12-18T22:12:28;4.8;96.0
21121;DHT22;12519;43.318;21.898;2022-12-18T22:17:05;4.8;96.0
21121;DHT22;12519;43.318;21.898;2022-12-18T22:21:43;4.8;96.0
21121;DHT22;12519;43.318;21.898;2022-12-18T22:26:25;4.7;96.0
21121;DHT22;12519;43.318;21.898;2022-12-18T22:31:07;4.7;96.0
21121;DHT22;12519;43.318;21.898;2022-12-18T22:35:43;4.7;95.0
21121;DHT22;12519;43.318;21.898;2022-12-18T22:40:22;4.7;95.0
21121;DHT22;12519;43.318;21.898;2022-12-18T22:44:58;4.7;95.0
21121;DHT22;12519;43.318;21.898;2022-12-18T22:49:35;4.7;95.0
21121;DHT22;12519;43.318;21.898;2022-12-18T22:54:12;4.8;95.0
21121;DHT22;12519;43.318;21.898;2022-12-18T22:58:51;4.8;95.0
21121;DHT22;12519;43.318;21.898;2022-12-18T23:03:27;4.8;95.0
21121;DHT22;12519;43.318;21.898;2022-12-18T23:08:04;4.8;94.0
21121;DHT22;12519;43.318;21.898;2022-12-18T23:12:39;4.8;94.0
21121;DHT22;12519;43.318;21.898;2022-12-18T23:17:15;5.6;94.0
21121;DHT22;12519;43.318;21.898;2022-12-18T23:21:51;5.6;94.0
21121;DHT22;12519;43.318;21.898;2022-12-18T23:26:28;6.3;94.0
21121;DHT22;12519;43.318;21.898;2022-12-18T23:31:07;6.3;94.0
21121;DHT22;12519;43.318;21.898;2022-12-18T23:35:50;5.9;93.0
21121;DHT22;12519;43.318;21.898;2022-12-18T23:40:27;5.9;93.0
21121;DHT22;12519;43.318;21.898;2022-12-18T23:45:06;5.5;92.0
21121;DHT22;12519;43.318;21.898;2022-12-18T23:49:44;5.5;92.0
21121;DHT22;12519;43.318;21.898;2022-12-18T23:54:20;5.2;92.0
21121;DHT22;12519;43.318;21.898;2022-12-18T23:58:56;5.2;92.0
